WEATHER DATA

YESTERDAY
Time Temp. Dewp. Hum. Wind dir Wind speed Wind gust Bar. 1h Prec. 24h Prec.
00:00 18.9 14.8 77 337 0.3 0.8 1027 0.0000 0.0000
00:10 18.8 14.9 78 355 0.3 1.1 1027.2 0.0000 0.0000
00:21 18.8 14.9 78 341 0.3 0.8 1027.2 0.0000 0.0000
00:40 18.7 14.8 78 320 0.3 1.1 1027.1 0.0000 0.0000
00:51 18.6 14.7 78 341 0.3 0.8 1027.1 0.0000 0.0000
01:01 18.6 14.7 78 349 0.3 0.8 1027 0.0000 0.0000
01:11 18.5 14.6 78 327 0.3 1.1 1027 0.0000 0.0000
01:20 18.3 14.4 78 3 0.3 0.8 1027 0.0000 0.0000
01:31 18.2 14.3 78 351 0.3 0.8 1027 0.0000 0.0000
01:41 18.1 14.2 78 0 0.3 0.8 1027 0.0000 0.0000
01:51 18 14.3 79 353 0.3 0.8 1026.9 0.0000 0.0000
02:01 17.9 14.2 79 345 0.3 0.8 1026.9 0.0000 0.0000
02:12 17.7 14 79 351 0.3 0.8 1026.9 0.0000 0.0000
02:22 17.6 13.9 79 352 0.3 0.8 1027 0.0000 0.0000
02:31 17.5 14 80 352 0.3 0.8 1027 0.0000 0.0000
02:42 17.4 13.9 80 0 0.3 0.8 1027 0.0000 0.0000
02:52 17.3 13.8 80 3 0.3 0.8 1027 0.0000 0.0000
03:02 17.2 13.7 80 9 0.3 0.8 1027 0.0000 0.0000
03:12 17.1 13.6 80 351 0.3 0.8 1026.8 0.0000 0.0000
03:23 17 13.5 80 355 0.3 0.8 1026.7 0.0000 0.0000
03:32 16.9 13.4 80 0 0.3 0.8 1026.8 0.0000 0.0000
03:42 16.8 13.3 80 352 0.3 0.8 1026.8 0.0000 0.0000
03:52 16.7 13.2 80 334 0.3 0.8 1026.8 0.0000 0.0000
04:03 16.6 13.1 80 330 0.3 0.8 1026.8 0.0000 0.0000
04:13 16.5 13 80 0 0.3 0.8 1026.8 0.0000 0.0000
04:23 16.3 13 81 6 0.3 0.8 1026.8 0.0000 0.0000
04:33 16.3 13 81 341 0.3 0.8 1026.9 0.0000 0.0000
04:43 16.1 12.8 81 348 0.3 0.8 1026.7 0.0000 0.0000
04:53 16 12.7 81 334 0.3 1.1 1026.5 0.0000 0.0000
05:03 16 12.7 81 334 0.3 0.8 1026.5 0.0000 0.0000
05:14 15.9 12.6 81 270 0.3 0.8 1026.3 0.0000 0.0000
05:23 15.7 12.5 81 0 0.3 0.8 1026.3 0.0000 0.0000
05:33 15.6 12.5 82 270 0.3 1.1 1026.4 0.0000 0.0000
05:44 15.5 12.4 82 354 0.3 1.1 1026.4 0.0000 0.0000
05:54 15.5 12.4 82 350 0.3 0.8 1026.3 0.0000 0.0000
06:04 15.3 12.2 82 324 0.3 1.1 1026.3 0.0000 0.0000
06:14 15.3 12.4 83 324 0.3 0.8 1026.4 0.0000 0.0000
06:25 15.2 12.3 83 0 0.3 1.4 1026.4 0.0000 0.0000
06:34 15.2 12.3 83 270 0.3 1.4 1026.7 0.0000 0.0000
06:44 15.1 12.2 83 315 0.3 1.1 1026.4 0.0000 0.0000
06:54 15.1 12.2 83 315 0.3 1.1 1026.5 0.0000 0.0000
07:05 15 12.1 83 315 0.3 0.8 1026.7 0.0000 0.0000
07:15 15.1 12.2 83 270 0.3 0.8 1026.7 0.0000 0.0000
07:25 15.2 12.3 83 341 0.3 1.1 1026.5 0.0000 0.0000
07:35 15.2 12.3 83 270 0.3 1.1 1026.7 0.0000 0.0000
07:45 15.2 12.3 83 270 0.3 1.1 1026.5 0.0000 0.0000
07:55 15.3 12.6 84 270 0.3 1.1 1026.5 0.0000 0.0000
08:05 15.4 12.7 84 270 0.8 1.7 1026.5 0.0000 0.0000
08:16 15.6 13.1 85 315 0.3 1.1 1026.4 0.0000 0.0000
08:26 15.9 13.4 85 270 0.3 1.7 1026.4 0.0000 0.0000
08:36 16.2 13.7 85 306 0.3 1.1 1026.4 0.0000 0.0000
08:46 16.5 14 85 270 0.3 1.1 1026.5 0.0000 0.0000
08:56 16.8 14.1 84 270 0.3 1.4 1026.5 0.0000 0.0000
09:06 17.3 14.4 83 315 0.3 1.4 1026.5 0.0000 0.0000
09:16 17.7 14.8 83 270 0.3 1.4 1026.4 0.0000 0.0000
09:26 18.1 15.2 83 270 0.3 1.1 1026.4 0.0000 0.0000
09:36 18.5 15.4 82 270 0.3 1.1 1026.4 0.0000 0.0000
09:46 18.9 15.6 81 270 0.3 0.8 1026.3 0.0000 0.0000
09:56 19.3 15.8 80 315 0.3 1.4 1026.4 0.0000 0.0000
10:07 19.8 16.1 79 270 0.3 1.4 1026.5 0.0000 0.0000
10:16 20.1 16.1 78 330 0.3 1.4 1026.5 0.0000 0.0000
10:26 20.5 16.3 77 348 0.8 1.4 1026.4 0.0000 0.0000
10:47 22.3 17.4 74 270 0.3 1.1 1026.3 0.0000 0.0000
10:57 23.7 17.9 70 353 0.3 1.1 1026.3 0.0000 0.0000
11:07 24.5 18.2 68 270 0.3 1.1 1026.1 0.0000 0.0000
11:17 24.4 18.1 68 270 0.3 1.1 1026.2 0.0000 0.0000
11:27 24 18.2 70 351 0.3 0.8 1026.1 0.0000 0.0000
11:37 24.3 18.3 69 338 0.3 0.8 1026.1 0.0000 0.0000
11:47 25 18.9 69 307 0.3 1.1 1026.1 0.0000 0.0000
11:57 25.3 18.5 66 347 0.8 1.7 1025.9 0.0000 0.0000
12:07 25.5 18.7 66 270 0.3 1.4 1025.9 0.0000 0.0000
12:17 26.3 19.2 65 323 0.8 2.2 1025.9 0.0000 0.0000
12:28 26.5 18.6 62 346 1.1 3.1 1025.8 0.0000 0.0000
12:41 27.1 18.9 61 340 0.8 2.5 1025.8 0.0000 0.0000
12:51 27.5 19.6 62 180 0.8 2.2 1025.9 0.0000 0.0000
13:01 27.7 19.8 62 206 0.3 1.4 1025.7 0.0000 0.0000
13:11 28.1 20.1 62 270 0.3 1.7 1025.5 0.0000 0.0000
13:22 28.5 20 60 330 0.8 1.7 1025.4 0.0000 0.0000
13:32 28.3 19.2 58 333 0.8 2.5 1025.4 0.0000 0.0000
13:41 28.5 20.2 61 329 0.8 2.2 1025.3 0.0000 0.0000
13:51 28.8 20.5 61 331 0.8 2.8 1025.4 0.0000 0.0000
14:02 28.9 20.1 59 319 0.8 1.7 1025.2 0.0000 0.0000
14:12 29.1 19.7 57 315 0.3 1.7 1025.2 0.0000 0.0000
14:22 28.9 19.5 57 342 0.8 1.7 1025 0.0000 0.0000
14:32 28.9 19.5 57 337 0.8 2.5 1025 0.0000 0.0000
14:42 28.7 19.6 58 327 0.8 2.5 1024.9 0.0000 0.0000
14:52 28.3 19 57 343 0.8 2.5 1024.8 0.0000 0.0000
15:02 28.4 19.1 57 340 0.8 2.8 1024.8 0.0000 0.0000
15:13 28.6 19.5 58 335 0.8 1.7 1024.8 0.0000 0.0000
15:23 28.6 19.3 57 346 1.1 2.5 1024.7 0.0000 0.0000
15:33 27.9 18 55 337 0.8 2.5 1024.4 0.0000 0.0000
15:42 27.7 18.7 58 325 0.3 1.4 1024.6 0.0000 0.0000
15:53 27.3 18.3 58 329 0.3 1.1 1024.4 0.0000 0.0000
16:03 27.4 19 60 305 0.8 2.2 1024.2 0.0000 0.0000
16:13 27.2 18.8 60 333 0.3 1.4 1024.4 0.0000 0.0000
16:23 26.9 18.5 60 334 0.8 1.4 1024.3 0.0000 0.0000
16:33 26.8 18.4 60 332 0.8 1.1 1024.3 0.0000 0.0000
16:43 26.4 17.5 58 344 0.8 2.2 1024.3 0.0000 0.0000
16:53 26.1 17.5 59 344 0.8 1.7 1024.3 0.0000 0.0000
17:04 25.7 17.9 62 356 0.3 1.1 1024.3 0.0000 0.0000
17:14 25.6 17.5 61 326 0.3 1.1 1024.2 0.0000 0.0000
17:23 25.5 17.9 63 330 0.8 1.7 1024.2 0.0000 0.0000
17:34 25.2 17.1 61 340 0.8 1.7 1024.2 0.0000 0.0000
17:44 25.1 17.6 63 338 0.3 1.1 1024.3 0.0000 0.0000
17:54 24.9 17.6 64 347 0.3 0.8 1024.3 0.0000 0.0000
18:04 24.8 17.8 65 354 0.3 0.8 1024.3 0.0000 0.0000
18:15 24.5 17.5 65 336 0.3 0.8 1024.3 0.0000 0.0000
18:24 24.4 17.6 66 348 0.3 0.8 1024.2 0.0000 0.0000
18:34 24.5 18 67 315 0.3 0.8 1024.3 0.0000 0.0000
18:44 24.6 18.1 67 341 0.3 0.8 1024.1 0.0000 0.0000
18:55 24.5 18 67 315 0.3 0.8 1024.1 0.0000 0.0000
19:05 24.3 17.8 67 345 0.3 0.8 1024.2 0.0000 0.0000
19:14 24.1 17.6 67 270 0.3 0.8 1024.2 0.0000 0.0000
19:25 23.8 17.5 68 0 0.3 0.8 1024.3 0.0000 0.0000
19:35 23.6 17.4 68 345 0.3 0.8 1024.2 0.0000 0.0000
19:45 23.3 17.1 68 315 0.3 0.8 1024.3 0.0000 0.0000
19:55 23.1 16.9 68 315 0.3 0.8 1024.4 0.0000 0.0000
20:06 22.8 16.8 69 336 0.3 0.8 1024.6 0.0000 0.0000
20:15 22.7 17 70 334 0.3 0.8 1024.4 0.0000 0.0000
20:25 22.6 17.1 71 326 0.3 0.8 1024.7 0.0000 0.0000
20:36 22.4 16.9 71 307 0.3 0.8 1024.7 0.0000 0.0000
20:45 22.1 16.6 71 0 0.3 0.8 1025 0.0000 0.0000
20:55 21.9 16.4 71 351 0.3 0.8 1025 0.0000 0.0000
21:05 21.6 16.3 72 356 0.3 1.1 1025 0.0000 0.0000
21:16 21.3 16.3 73 3 0.3 1.1 1024.9 0.0000 0.0000
21:25 21.1 16.1 73 350 0.3 0.8 1025 0.0000 0.0000
21:35 20.9 15.9 73 3 0.3 0.8 1025.1 0.0000 0.0000
21:46 20.7 15.9 74 356 0.3 1.1 1025.1 0.0000 0.0000
21:56 20.5 15.7 74 343 0.3 1.1 1025.3 0.0000 0.0000
22:05 20.2 15.4 74 356 0.3 1.1 1025.3 0.0000 0.0000
22:16 20 15.2 74 15 0.3 1.1 1025.2 0.0000 0.0000
22:26 19.8 15 74 0 0.3 1.4 1025.2 0.0000 0.0000
22:36 19.7 15.1 75 341 0.3 0.8 1025.3 0.0000 0.0000
22:45 19.5 15 75 333 0.3 1.1 1025.3 0.0000 0.0000
22:56 19.3 14.8 75 348 0.3 1.1 1025.3 0.0000 0.0000
23:06 19.1 14.8 76 344 0.3 1.1 1025.4 0.0000 0.0000
23:16 19 14.7 76 329 0.3 1.1 1025.4 0.0000 0.0000
23:26 18.8 14.5 76 337 0.3 1.1 1025.4 0.0000 0.0000
23:36 18.7 14.4 76 343 0.3 1.1 1025.7 0.0000 0.0000
23:46 18.5 14.2 76 315 0.3 1.4 1025.5 0.0000 0.0000
23:56 18.4 14.3 77 357 0.3 1.4 1025.7 0.0000 0.0000

DAY STATISTIC

2018-08-19
TEMPERATURE
AVERAGE
21.2
HIGH
29.1
14:12
LOW
15.0
07:05
PRESSURE
AVERAGE
1025.7
HIGH
1027.2
00:10
LOW
1024.1
18:44
DEWPOINT
AVERAGE
15.9
HIGH
20.5
13:51
LOW
12.1
07:05
HUMIDITY
AVERAGE
73
HIGH
85
08:16
LOW
55
15:33
WIND SPEED
AVERAGE
0.4
HIGH
1.1
12:28
WIND GUST
AVERAGE
1.2
HIGH
3.1
12:28
WIND DIRECTION
PREVAILING
N
47.5%
N
47.5
NE
0.0
E
0.0
SE
0.0
S
0.7
SW
0.7
W
15.6
NW
35.5
PRECIPITATION
RAIN HOUR
0.0
RAIN DAY
0.0
TEMPERATURE (°C)
LOW
15.0
HIGH
29.1
AVERAGE
21.2
PRESSURE (hpa)
LOW
1024.1
HIGH
1027.2
AVERAGE
1025.7
DEVICE